Terminal Aerodrome Forecast
Issued by NWS

Home | Current Version | Previous Version | Text Only | Print | Product List | Glossary On
Versions: 1 2 3 4 5 6 7 8 9 10 11 12 13 14 15 16 17 18 19 20 21 22 23 24 25
000
FTUS41 KPBZ 282004 AAA
TAFAGC
TAF AMD
KAGC 282004Z 2820/2918 07005KT 2SM -DZ BR OVC002
     FM282200 08007KT P6SM BKN010
     FM290200 VRB04KT P6SM OVC008
     FM290600 VRB03KT P6SM OVC004
     FM291500 VRB03KT P6SM OVC008=

USA.gov is the U.S. government's official web portal to all federal, state and local government web resources and services.